sensor_id;sensor_type;location;lat;lon;timestamp;temperature;humidity
8965;DHT22;4517;49.020;12.066;2023-02-01T00:01:44;3.20;99.90
8965;DHT22;4517;49.020;12.066;2023-02-01T00:04:09;3.30;99.90
8965;DHT22;4517;49.020;12.066;2023-02-01T00:06:35;3.30;99.90
8965;DHT22;4517;49.020;12.066;2023-02-01T00:09:01;3.30;99.90
8965;DHT22;4517;49.020;12.066;2023-02-01T00:11:26;3.30;99.90
8965;DHT22;4517;49.020;12.066;2023-02-01T00:13:52;3.30;99.90
8965;DHT22;4517;49.020;12.066;2023-02-01T00:16:25;3.30;99.90
8965;DHT22;4517;49.020;12.066;2023-02-01T00:18:56;3.30;99.90
8965;DHT22;4517;49.020;12.066;2023-02-01T00:21:22;3.30;99.90
8965;DHT22;4517;49.020;12.066;2023-02-01T00:23:48;3.30;99.90
8965;DHT22;4517;49.020;12.066;2023-02-01T00:26:19;3.30;99.90
8965;DHT22;4517;49.020;12.066;2023-02-01T00:28:45;3.30;99.90
8965;DHT22;4517;49.020;12.066;2023-02-01T00:31:11;3.30;99.90
8965;DHT22;4517;49.020;12.066;2023-02-01T00:33:37;3.30;99.90
8965;DHT22;4517;49.020;12.066;2023-02-01T00:36:05;3.30;99.90
8965;DHT22;4517;49.020;12.066;2023-02-01T00:38:33;3.30;99.90
8965;DHT22;4517;49.020;12.066;2023-02-01T00:41:11;3.30;99.90
8965;DHT22;4517;49.020;12.066;2023-02-01T00:43:37;3.30;99.90
8965;DHT22;4517;49.020;12.066;2023-02-01T00:46:03;3.30;99.90
8965;DHT22;4517;49.020;12.066;2023-02-01T00:48:29;3.30;99.90
8965;DHT22;4517;49.020;12.066;2023-02-01T00:50:58;3.40;99.90
8965;DHT22;4517;49.020;12.066;2023-02-01T00:53:24;3.30;99.90
8965;DHT22;4517;49.020;12.066;2023-02-01T00:55:49;3.30;99.90
8965;DHT22;4517;49.020;12.066;2023-02-01T00:58:15;3.40;99.90
8965;DHT22;4517;49.020;12.066;2023-02-01T01:00:41;3.30;99.90
8965;DHT22;4517;49.020;12.066;2023-02-01T01:03:06;3.30;99.90
8965;DHT22;4517;49.020;12.066;2023-02-01T01:05:47;3.40;99.90
8965;DHT22;4517;49.020;12.066;2023-02-01T01:08:16;3.40;99.90
8965;DHT22;4517;49.020;12.066;2023-02-01T01:10:42;3.40;99.90
8965;DHT22;4517;49.020;12.066;2023-02-01T01:13:08;3.40;99.90
8965;DHT22;4517;49.020;12.066;2023-02-01T01:15:38;3.40;99.90
8965;DHT22;4517;49.020;12.066;2023-02-01T01:18:04;3.40;99.90
8965;DHT22;4517;49.020;12.066;2023-02-01T01:20:30;3.40;99.90
8965;DHT22;4517;49.020;12.066;2023-02-01T01:22:55;3.40;99.90
8965;DHT22;4517;49.020;12.066;2023-02-01T01:25:21;3.40;99.90
8965;DHT22;4517;49.020;12.066;2023-02-01T01:27:47;3.40;99.90
8965;DHT22;4517;49.020;12.066;2023-02-01T01:30:12;3.40;99.90
8965;DHT22;4517;49.020;12.066;2023-02-01T01:32:38;3.50;99.90
8965;DHT22;4517;49.020;12.066;2023-02-01T01:35:05;3.50;99.90
8965;DHT22;4517;49.020;12.066;2023-02-01T01:37:32;3.50;99.90
8965;DHT22;4517;49.020;12.066;2023-02-01T01:39:57;3.50;99.90
8965;DHT22;4517;49.020;12.066;2023-02-01T01:42:23;3.50;99.90
8965;DHT22;4517;49.020;12.066;2023-02-01T01:45:04;3.50;99.90
8965;DHT22;4517;49.020;12.066;2023-02-01T01:47:37;3.60;99.90
8965;DHT22;4517;49.020;12.066;2023-02-01T01:50:06;3.60;99.90
8965;DHT22;4517;49.020;12.066;2023-02-01T01:52:34;3.60;99.90
8965;DHT22;4517;49.020;12.066;2023-02-01T01:54:59;3.60;99.90
8965;DHT22;4517;49.020;12.066;2023-02-01T01:57:40;3.60;99.90
8965;DHT22;4517;49.020;12.066;2023-02-01T02:00:10;3.60;99.90
8965;DHT22;4517;49.020;12.066;2023-02-01T02:02:37;3.60;99.90
8965;DHT22;4517;49.020;12.066;2023-02-01T02:05:04;3.60;99.90
8965;DHT22;4517;49.020;12.066;2023-02-01T02:07:35;3.60;99.90
8965;DHT22;4517;49.020;12.066;2023-02-01T02:10:04;3.60;99.90
8965;DHT22;4517;49.020;12.066;2023-02-01T02:12:31;3.70;99.90
8965;DHT22;4517;49.020;12.066;2023-02-01T02:14:57;3.70;99.90
8965;DHT22;4517;49.020;12.066;2023-02-01T02:20:26;3.70;99.90
8965;DHT22;4517;49.020;12.066;2023-02-01T02:26:16;3.80;99.90
8965;DHT22;4517;49.020;12.066;2023-02-01T02:32:11;3.80;99.90
8965;DHT22;4517;49.020;12.066;2023-02-01T02:34:44;3.80;99.90
8965;DHT22;4517;49.020;12.066;2023-02-01T02:42:40;3.80;99.90
8965;DHT22;4517;49.020;12.066;2023-02-01T02:45:40;3.70;99.90
8965;DHT22;4517;49.020;12.066;2023-02-01T02:48:30;3.70;99.90
8965;DHT22;4517;49.020;12.066;2023-02-01T02:53:59;3.70;99.90
8965;DHT22;4517;49.020;12.066;2023-02-01T02:56:45;3.60;99.90
8965;DHT22;4517;49.020;12.066;2023-02-01T02:59:30;3.70;99.90
8965;DHT22;4517;49.020;12.066;2023-02-01T03:02:17;3.60;99.90
8965;DHT22;4517;49.020;12.066;2023-02-01T03:05:01;3.60;99.90
8965;DHT22;4517;49.020;12.066;2023-02-01T03:07:57;3.60;99.90
8965;DHT22;4517;49.020;12.066;2023-02-01T03:10:31;3.60;99.90
8965;DHT22;4517;49.020;12.066;2023-02-01T03:13:06;3.60;99.90
8965;DHT22;4517;49.020;12.066;2023-02-01T03:15:54;3.60;99.90
8965;DHT22;4517;49.020;12.066;2023-02-01T03:18:33;3.60;99.90
8965;DHT22;4517;49.020;12.066;2023-02-01T03:21:05;3.70;99.90
8965;DHT22;4517;49.020;12.066;2023-02-01T03:23:47;3.70;99.90
8965;DHT22;4517;49.020;12.066;2023-02-01T03:26:16;3.60;99.90
8965;DHT22;4517;49.020;12.066;2023-02-01T03:28:54;3.60;99.90
8965;DHT22;4517;49.020;12.066;2023-02-01T03:31:23;3.60;99.90
8965;DHT22;4517;49.020;12.066;2023-02-01T03:33:50;3.70;99.90
8965;DHT22;4517;49.020;12.066;2023-02-01T03:36:35;3.70;99.90
8965;DHT22;4517;49.020;12.066;2023-02-01T03:39:20;3.60;99.90
8965;DHT22;4517;49.020;12.066;2023-02-01T03:41:51;3.70;99.90
8965;DHT22;4517;49.020;12.066;2023-02-01T03:47:40;3.70;99.90
8965;DHT22;4517;49.020;12.066;2023-02-01T03:50:10;3.70;99.90
8965;DHT22;4517;49.020;12.066;2023-02-01T03:55:08;3.70;99.90
8965;DHT22;4517;49.020;12.066;2023-02-01T03:57:38;3.80;99.90
8965;DHT22;4517;49.020;12.066;2023-02-01T04:00:18;3.80;99.90
8965;DHT22;4517;49.020;12.066;2023-02-01T04:02:45;3.80;99.90
8965;DHT22;4517;49.020;12.066;2023-02-01T04:05:11;3.90;99.90
8965;DHT22;4517;49.020;12.066;2023-02-01T04:07:36;3.80;99.90
8965;DHT22;4517;49.020;12.066;2023-02-01T04:10:03;3.80;99.90
8965;DHT22;4517;49.020;12.066;2023-02-01T04:12:29;3.80;99.90
8965;DHT22;4517;49.020;12.066;2023-02-01T04:14:54;3.80;99.90
8965;DHT22;4517;49.020;12.066;2023-02-01T04:17:20;3.80;99.90
8965;DHT22;4517;49.020;12.066;2023-02-01T04:19:45;3.90;99.90
8965;DHT22;4517;49.020;12.066;2023-02-01T04:22:11;4.00;99.90
8965;DHT22;4517;49.020;12.066;2023-02-01T04:24:37;4.00;99.90
8965;DHT22;4517;49.020;12.066;2023-02-01T04:27:03;3.90;99.90
8965;DHT22;4517;49.020;12.066;2023-02-01T04:29:29;4.00;99.90
8965;DHT22;4517;49.020;12.066;2023-02-01T04:31:54;4.00;99.90
8965;DHT22;4517;49.020;12.066;2023-02-01T04:34:20;4.00;99.90
8965;DHT22;4517;49.020;12.066;2023-02-01T04:36:48;4.10;99.90
8965;DHT22;4517;49.020;12.066;2023-02-01T04:39:13;4.10;99.90
8965;DHT22;4517;49.020;12.066;2023-02-01T04:41:39;4.10;99.90
8965;DHT22;4517;49.020;12.066;2023-02-01T04:44:04;4.10;99.90
8965;DHT22;4517;49.020;12.066;2023-02-01T04:46:30;4.10;99.90
8965;DHT22;4517;49.020;12.066;2023-02-01T04:48:56;4.00;99.90
8965;DHT22;4517;49.020;12.066;2023-02-01T04:51:21;4.10;99.90
8965;DHT22;4517;49.020;12.066;2023-02-01T04:53:47;4.20;99.90
8965;DHT22;4517;49.020;12.066;2023-02-01T04:56:13;4.20;99.90
8965;DHT22;4517;49.020;12.066;2023-02-01T04:58:38;4.10;99.90
8965;DHT22;4517;49.020;12.066;2023-02-01T05:01:05;4.20;99.90
8965;DHT22;4517;49.020;12.066;2023-02-01T05:03:33;4.20;99.90
8965;DHT22;4517;49.020;12.066;2023-02-01T05:05:59;4.20;99.90
8965;DHT22;4517;49.020;12.066;2023-02-01T05:08:25;4.10;99.90
8965;DHT22;4517;49.020;12.066;2023-02-01T05:10:52;4.10;99.90
8965;DHT22;4517;49.020;12.066;2023-02-01T05:13:18;4.20;99.90
8965;DHT22;4517;49.020;12.066;2023-02-01T05:16:02;4.20;99.90
8965;DHT22;4517;49.020;12.066;2023-02-01T05:18:28;4.20;99.90
8965;DHT22;4517;49.020;12.066;2023-02-01T05:20:53;4.30;99.90
8965;DHT22;4517;49.020;12.066;2023-02-01T05:23:19;4.40;99.90
8965;DHT22;4517;49.020;12.066;2023-02-01T05:25:44;4.60;99.90
8965;DHT22;4517;49.020;12.066;2023-02-01T05:28:10;4.60;99.90
8965;DHT22;4517;49.020;12.066;2023-02-01T05:30:35;4.70;99.90
8965;DHT22;4517;49.020;12.066;2023-02-01T05:33:02;4.80;99.90
8965;DHT22;4517;49.020;12.066;2023-02-01T05:35:27;5.00;99.90
8965;DHT22;4517;49.020;12.066;2023-02-01T05:37:53;4.90;99.90
8965;DHT22;4517;49.020;12.066;2023-02-01T05:40:19;4.90;99.90
8965;DHT22;4517;49.020;12.066;2023-02-01T05:42:44;5.00;99.90
8965;DHT22;4517;49.020;12.066;2023-02-01T05:45:10;5.10;99.90
8965;DHT22;4517;49.020;12.066;2023-02-01T05:47:36;5.00;99.90
8965;DHT22;4517;49.020;12.066;2023-02-01T05:50:02;5.00;99.90
8965;DHT22;4517;49.020;12.066;2023-02-01T05:52:27;5.10;99.90
8965;DHT22;4517;49.020;12.066;2023-02-01T05:54:53;5.00;99.90
8965;DHT22;4517;49.020;12.066;2023-02-01T05:57:18;4.90;99.90
8965;DHT22;4517;49.020;12.066;2023-02-01T05:59:44;4.60;99.90
8965;DHT22;4517;49.020;12.066;2023-02-01T06:02:11;4.60;99.90
8965;DHT22;4517;49.020;12.066;2023-02-01T06:04:37;4.50;99.90
8965;DHT22;4517;49.020;12.066;2023-02-01T06:07:03;4.40;99.90
8965;DHT22;4517;49.020;12.066;2023-02-01T06:09:29;4.40;99.90
8965;DHT22;4517;49.020;12.066;2023-02-01T06:11:54;4.30;99.90
8965;DHT22;4517;49.020;12.066;2023-02-01T06:14:20;4.20;99.90
8965;DHT22;4517;49.020;12.066;2023-02-01T06:16:46;4.10;99.90
8965;DHT22;4517;49.020;12.066;2023-02-01T06:19:12;3.90;99.90
8965;DHT22;4517;49.020;12.066;2023-02-01T06:21:38;3.80;99.90
8965;DHT22;4517;49.020;12.066;2023-02-01T06:24:04;3.70;99.90
8965;DHT22;4517;49.020;12.066;2023-02-01T06:26:30;3.70;99.90
8965;DHT22;4517;49.020;12.066;2023-02-01T06:28:55;3.70;99.90
8965;DHT22;4517;49.020;12.066;2023-02-01T06:31:21;3.70;99.90
8965;DHT22;4517;49.020;12.066;2023-02-01T06:33:47;3.70;99.90
8965;DHT22;4517;49.020;12.066;2023-02-01T06:36:14;3.70;99.90
8965;DHT22;4517;49.020;12.066;2023-02-01T06:38:41;3.70;99.90
8965;DHT22;4517;49.020;12.066;2023-02-01T06:41:06;3.70;99.90
8965;DHT22;4517;49.020;12.066;2023-02-01T06:43:32;3.80;99.90
8965;DHT22;4517;49.020;12.066;2023-02-01T06:46:02;3.80;99.90
8965;DHT22;4517;49.020;12.066;2023-02-01T06:48:28;3.80;99.90
8965;DHT22;4517;49.020;12.066;2023-02-01T06:50:54;3.90;99.90
8965;DHT22;4517;49.020;12.066;2023-02-01T06:53:20;3.90;99.90
8965;DHT22;4517;49.020;12.066;2023-02-01T06:55:59;3.80;99.90
8965;DHT22;4517;49.020;12.066;2023-02-01T06:58:32;3.90;99.90
8965;DHT22;4517;49.020;12.066;2023-02-01T07:01:04;3.80;99.90
8965;DHT22;4517;49.020;12.066;2023-02-01T07:03:30;3.80;99.90
8965;DHT22;4517;49.020;12.066;2023-02-01T07:05:56;3.80;99.90
8965;DHT22;4517;49.020;12.066;2023-02-01T07:08:27;3.70;99.90
8965;DHT22;4517;49.020;12.066;2023-02-01T07:10:53;3.60;99.90
8965;DHT22;4517;49.020;12.066;2023-02-01T07:13:19;3.60;99.90
8965;DHT22;4517;49.020;12.066;2023-02-01T07:15:44;3.60;99.90
8965;DHT22;4517;49.020;12.066;2023-02-01T07:18:13;3.60;99.90
8965;DHT22;4517;49.020;12.066;2023-02-01T07:20:40;3.70;99.90
8965;DHT22;4517;49.020;12.066;2023-02-01T07:23:06;3.70;99.90
8965;DHT22;4517;49.020;12.066;2023-02-01T07:25:31;3.70;99.90
8965;DHT22;4517;49.020;12.066;2023-02-01T07:27:57;3.80;99.90
8965;DHT22;4517;49.020;12.066;2023-02-01T07:30:23;3.70;99.90
8965;DHT22;4517;49.020;12.066;2023-02-01T07:32:48;3.60;99.90
8965;DHT22;4517;49.020;12.066;2023-02-01T07:35:14;3.50;99.90
8965;DHT22;4517;49.020;12.066;2023-02-01T07:37:40;3.40;99.90
8965;DHT22;4517;49.020;12.066;2023-02-01T07:40:06;3.20;99.90
8965;DHT22;4517;49.020;12.066;2023-02-01T07:42:32;3.20;99.90
8965;DHT22;4517;49.020;12.066;2023-02-01T07:44:57;3.10;99.90
8965;DHT22;4517;49.020;12.066;2023-02-01T07:47:23;3.10;99.90
8965;DHT22;4517;49.020;12.066;2023-02-01T07:49:48;3.00;99.90
8965;DHT22;4517;49.020;12.066;2023-02-01T07:52:14;3.10;99.90
8965;DHT22;4517;49.020;12.066;2023-02-01T07:54:42;3.00;99.90
8965;DHT22;4517;49.020;12.066;2023-02-01T07:57:08;3.10;99.90
8965;DHT22;4517;49.020;12.066;2023-02-01T07:59:36;3.10;99.90
8965;DHT22;4517;49.020;12.066;2023-02-01T08:02:22;3.20;99.90
8965;DHT22;4517;49.020;12.066;2023-02-01T08:04:48;3.20;99.90
8965;DHT22;4517;49.020;12.066;2023-02-01T08:07:13;3.20;99.90
8965;DHT22;4517;49.020;12.066;2023-02-01T08:09:39;3.20;99.90
8965;DHT22;4517;49.020;12.066;2023-02-01T08:12:04;3.30;99.90
8965;DHT22;4517;49.020;12.066;2023-02-01T08:14:30;3.30;99.90
8965;DHT22;4517;49.020;12.066;2023-02-01T08:16:56;3.30;99.90
8965;DHT22;4517;49.020;12.066;2023-02-01T08:19:21;3.30;99.90
8965;DHT22;4517;49.020;12.066;2023-02-01T08:21:47;3.30;99.90
8965;DHT22;4517;49.020;12.066;2023-02-01T08:24:14;3.40;99.90
8965;DHT22;4517;49.020;12.066;2023-02-01T08:26:39;3.40;99.90
8965;DHT22;4517;49.020;12.066;2023-02-01T08:29:06;3.50;99.90
8965;DHT22;4517;49.020;12.066;2023-02-01T08:31:32;3.50;99.90
8965;DHT22;4517;49.020;12.066;2023-02-01T08:34:00;3.60;99.90
8965;DHT22;4517;49.020;12.066;2023-02-01T08:36:28;3.60;99.90
8965;DHT22;4517;49.020;12.066;2023-02-01T08:38:54;3.70;99.90
8965;DHT22;4517;49.020;12.066;2023-02-01T08:41:22;3.80;99.90
8965;DHT22;4517;49.020;12.066;2023-02-01T08:43:48;3.90;99.90
8965;DHT22;4517;49.020;12.066;2023-02-01T08:46:15;4.00;99.90
8965;DHT22;4517;49.020;12.066;2023-02-01T08:48:41;4.00;99.90
8965;DHT22;4517;49.020;12.066;2023-02-01T08:51:09;4.10;99.90
8965;DHT22;4517;49.020;12.066;2023-02-01T08:53:36;4.20;99.90
8965;DHT22;4517;49.020;12.066;2023-02-01T08:56:02;4.20;99.90
8965;DHT22;4517;49.020;12.066;2023-02-01T08:58:28;4.30;99.90
8965;DHT22;4517;49.020;12.066;2023-02-01T09:00:54;4.40;99.90
8965;DHT22;4517;49.020;12.066;2023-02-01T09:03:19;4.40;99.90
8965;DHT22;4517;49.020;12.066;2023-02-01T09:05:45;4.40;99.90
8965;DHT22;4517;49.020;12.066;2023-02-01T09:08:11;4.30;99.90
8965;DHT22;4517;49.020;12.066;2023-02-01T09:10:40;4.40;99.90
8965;DHT22;4517;49.020;12.066;2023-02-01T09:13:07;4.60;99.90
8965;DHT22;4517;49.020;12.066;2023-02-01T09:15:33;4.60;99.90
8965;DHT22;4517;49.020;12.066;2023-02-01T09:18:00;4.70;99.90
8965;DHT22;4517;49.020;12.066;2023-02-01T09:20:26;4.90;99.90
8965;DHT22;4517;49.020;12.066;2023-02-01T09:22:52;5.00;99.90
8965;DHT22;4517;49.020;12.066;2023-02-01T09:25:19;5.10;99.90
8965;DHT22;4517;49.020;12.066;2023-02-01T09:27:45;5.10;99.90
8965;DHT22;4517;49.020;12.066;2023-02-01T09:30:11;5.10;99.90
8965;DHT22;4517;49.020;12.066;2023-02-01T09:32:37;5.10;99.90
8965;DHT22;4517;49.020;12.066;2023-02-01T09:35:03;5.10;99.90
8965;DHT22;4517;49.020;12.066;2023-02-01T09:37:28;5.10;99.90
8965;DHT22;4517;49.020;12.066;2023-02-01T09:39:54;5.10;99.90
8965;DHT22;4517;49.020;12.066;2023-02-01T09:48:20;5.00;99.90
8965;DHT22;4517;49.020;12.066;2023-02-01T09:50:57;4.90;99.90
8965;DHT22;4517;49.020;12.066;2023-02-01T09:55:59;4.90;99.90
8965;DHT22;4517;49.020;12.066;2023-02-01T09:58:41;4.80;99.90
8965;DHT22;4517;49.020;12.066;2023-02-01T10:01:33;4.70;99.90
8965;DHT22;4517;49.020;12.066;2023-02-01T10:04:06;4.60;99.90
8965;DHT22;4517;49.020;12.066;2023-02-01T10:06:51;4.60;99.90
8965;DHT22;4517;49.020;12.066;2023-02-01T10:15:49;4.60;99.90
8965;DHT22;4517;49.020;12.066;2023-02-01T10:21:35;4.40;99.90
8965;DHT22;4517;49.020;12.066;2023-02-01T10:24:24;4.40;99.90
8965;DHT22;4517;49.020;12.066;2023-02-01T10:27:02;4.50;99.90
8965;DHT22;4517;49.020;12.066;2023-02-01T10:29:34;4.50;99.90
8965;DHT22;4517;49.020;12.066;2023-02-01T10:32:02;4.60;99.90
8965;DHT22;4517;49.020;12.066;2023-02-01T10:34:31;4.70;99.90
8965;DHT22;4517;49.020;12.066;2023-02-01T10:37:26;4.70;99.90
8965;DHT22;4517;49.020;12.066;2023-02-01T10:39:55;4.70;99.90
8965;DHT22;4517;49.020;12.066;2023-02-01T10:42:25;4.90;99.90
8965;DHT22;4517;49.020;12.066;2023-02-01T10:44:51;5.10;99.90
8965;DHT22;4517;49.020;12.066;2023-02-01T10:47:18;5.20;99.90
8965;DHT22;4517;49.020;12.066;2023-02-01T10:49:55;5.20;99.90
8965;DHT22;4517;49.020;12.066;2023-02-01T10:52:43;5.30;99.90
8965;DHT22;4517;49.020;12.066;2023-02-01T10:55:34;5.30;99.90
8965;DHT22;4517;49.020;12.066;2023-02-01T10:58:03;5.30;99.90
8965;DHT22;4517;49.020;12.066;2023-02-01T11:00:48;5.20;99.90
8965;DHT22;4517;49.020;12.066;2023-02-01T11:03:41;5.10;99.90
8965;DHT22;4517;49.020;12.066;2023-02-01T11:08:55;4.60;99.90
8965;DHT22;4517;49.020;12.066;2023-02-01T11:11:22;4.30;99.90
8965;DHT22;4517;49.020;12.066;2023-02-01T11:13:55;4.30;99.90
8965;DHT22;4517;49.020;12.066;2023-02-01T11:16:21;4.50;99.90
8965;DHT22;4517;49.020;12.066;2023-02-01T11:18:54;4.60;99.90
8965;DHT22;4517;49.020;12.066;2023-02-01T11:21:22;4.80;99.90
8965;DHT22;4517;49.020;12.066;2023-02-01T11:23:48;5.10;99.90
8965;DHT22;4517;49.020;12.066;2023-02-01T11:26:24;5.30;99.90
8965;DHT22;4517;49.020;12.066;2023-02-01T11:28:54;5.40;99.90
8965;DHT22;4517;49.020;12.066;2023-02-01T11:31:22;5.60;99.90
8965;DHT22;4517;49.020;12.066;2023-02-01T11:33:52;5.80;99.90
8965;DHT22;4517;49.020;12.066;2023-02-01T11:36:23;6.00;99.90
8965;DHT22;4517;49.020;12.066;2023-02-01T11:41:40;6.00;99.90
8965;DHT22;4517;49.020;12.066;2023-02-01T11:44:20;6.10;99.90
8965;DHT22;4517;49.020;12.066;2023-02-01T11:46:46;6.20;99.90
8965;DHT22;4517;49.020;12.066;2023-02-01T11:49:25;6.40;99.90
8965;DHT22;4517;49.020;12.066;2023-02-01T11:57:58;6.40;99.90
8965;DHT22;4517;49.020;12.066;2023-02-01T12:00:59;6.30;99.90
8965;DHT22;4517;49.020;12.066;2023-02-01T12:06:47;6.50;99.90
8965;DHT22;4517;49.020;12.066;2023-02-01T12:23:41;7.20;99.90
8965;DHT22;4517;49.020;12.066;2023-02-01T12:26:39;6.90;99.90
8965;DHT22;4517;49.020;12.066;2023-02-01T12:29:33;6.80;99.90
8965;DHT22;4517;49.020;12.066;2023-02-01T12:32:11;7.00;99.90
8965;DHT22;4517;49.020;12.066;2023-02-01T12:35:12;7.10;99.90
8965;DHT22;4517;49.020;12.066;2023-02-01T12:46:19;6.50;99.90
8965;DHT22;4517;49.020;12.066;2023-02-01T12:51:37;6.30;99.90
8965;DHT22;4517;49.020;12.066;2023-02-01T12:54:12;6.30;99.90
8965;DHT22;4517;49.020;12.066;2023-02-01T12:56:43;6.30;99.90
8965;DHT22;4517;49.020;12.066;2023-02-01T12:59:21;6.10;99.90
8965;DHT22;4517;49.020;12.066;2023-02-01T13:01:55;6.00;99.90
8965;DHT22;4517;49.020;12.066;2023-02-01T13:07:41;5.70;99.90
8965;DHT22;4517;49.020;12.066;2023-02-01T13:15:29;5.20;99.90
8965;DHT22;4517;49.020;12.066;2023-02-01T13:18:01;5.20;99.90
8965;DHT22;4517;49.020;12.066;2023-02-01T13:20:32;5.20;99.90
8965;DHT22;4517;49.020;12.066;2023-02-01T13:23:04;5.20;99.90
8965;DHT22;4517;49.020;12.066;2023-02-01T13:26:03;5.20;99.90
8965;DHT22;4517;49.020;12.066;2023-02-01T13:28:48;5.20;99.90
8965;DHT22;4517;49.020;12.066;2023-02-01T13:36:30;5.20;99.90
8965;DHT22;4517;49.020;12.066;2023-02-01T13:39:33;5.20;99.90
8965;DHT22;4517;49.020;12.066;2023-02-01T13:42:29;5.20;99.90
8965;DHT22;4517;49.020;12.066;2023-02-01T13:45:04;5.20;99.90
8965;DHT22;4517;49.020;12.066;2023-02-01T13:47:31;5.30;99.90
8965;DHT22;4517;49.020;12.066;2023-02-01T13:50:11;5.30;99.90
8965;DHT22;4517;49.020;12.066;2023-02-01T13:52:42;5.40;99.90
8965;DHT22;4517;49.020;12.066;2023-02-01T13:55:31;5.40;99.90
8965;DHT22;4517;49.020;12.066;2023-02-01T14:00:50;5.50;99.90
8965;DHT22;4517;49.020;12.066;2023-02-01T14:03:17;5.60;99.90
8965;DHT22;4517;49.020;12.066;2023-02-01T14:08:24;5.70;99.90
8965;DHT22;4517;49.020;12.066;2023-02-01T14:11:00;5.70;99.90
8965;DHT22;4517;49.020;12.066;2023-02-01T14:13:33;5.70;99.90
8965;DHT22;4517;49.020;12.066;2023-02-01T14:42:45;5.30;99.90
8965;DHT22;4517;49.020;12.066;2023-02-01T14:47:54;5.30;99.90
8965;DHT22;4517;49.020;12.066;2023-02-01T15:00:58;5.20;99.90
8965;DHT22;4517;49.020;12.066;2023-02-01T15:05:59;5.20;99.90
8965;DHT22;4517;49.020;12.066;2023-02-01T15:08:35;5.20;99.90
8965;DHT22;4517;49.020;12.066;2023-02-01T15:11:08;5.20;99.90
8965;DHT22;4517;49.020;12.066;2023-02-01T15:13:34;5.30;99.90
8965;DHT22;4517;49.020;12.066;2023-02-01T15:16:14;5.30;99.90
8965;DHT22;4517;49.020;12.066;2023-02-01T15:18:41;5.30;99.90
8965;DHT22;4517;49.020;12.066;2023-02-01T15:21:21;5.30;99.90
8965;DHT22;4517;49.020;12.066;2023-02-01T15:23:47;5.30;99.90
8965;DHT22;4517;49.020;12.066;2023-02-01T15:26:31;5.20;99.90
8965;DHT22;4517;49.020;12.066;2023-02-01T15:28:58;5.10;99.90
8965;DHT22;4517;49.020;12.066;2023-02-01T15:31:39;5.10;99.90
8965;DHT22;4517;49.020;12.066;2023-02-01T15:34:06;5.00;99.90
8965;DHT22;4517;49.020;12.066;2023-02-01T15:36:31;5.10;99.90
8965;DHT22;4517;49.020;12.066;2023-02-01T15:41:48;5.10;99.90
8965;DHT22;4517;49.020;12.066;2023-02-01T15:44:17;5.00;99.90
8965;DHT22;4517;49.020;12.066;2023-02-01T15:46:46;5.00;99.90
8965;DHT22;4517;49.020;12.066;2023-02-01T15:49:40;5.00;99.90
8965;DHT22;4517;49.020;12.066;2023-02-01T15:52:18;5.00;99.90
8965;DHT22;4517;49.020;12.066;2023-02-01T15:54:48;5.00;99.90
8965;DHT22;4517;49.020;12.066;2023-02-01T15:57:23;5.00;99.90
8965;DHT22;4517;49.020;12.066;2023-02-01T15:59:58;5.00;99.90
8965;DHT22;4517;49.020;12.066;2023-02-01T16:02:36;5.00;99.90
8965;DHT22;4517;49.020;12.066;2023-02-01T16:05:04;5.00;99.90
8965;DHT22;4517;49.020;12.066;2023-02-01T16:07:32;5.00;99.90
8965;DHT22;4517;49.020;12.066;2023-02-01T16:10:00;5.00;99.90
8965;DHT22;4517;49.020;12.066;2023-02-01T16:12:46;5.00;99.90
8965;DHT22;4517;49.020;12.066;2023-02-01T16:15:12;4.90;99.90
8965;DHT22;4517;49.020;12.066;2023-02-01T16:17:38;4.90;99.90
8965;DHT22;4517;49.020;12.066;2023-02-01T16:20:04;5.00;99.90
8965;DHT22;4517;49.020;12.066;2023-02-01T16:22:29;4.90;99.90
8965;DHT22;4517;49.020;12.066;2023-02-01T16:24:55;4.90;99.90
8965;DHT22;4517;49.020;12.066;2023-02-01T16:27:20;4.90;99.90
8965;DHT22;4517;49.020;12.066;2023-02-01T16:29:47;5.00;99.90
8965;DHT22;4517;49.020;12.066;2023-02-01T16:32:17;5.00;99.90
8965;DHT22;4517;49.020;12.066;2023-02-01T16:34:44;4.90;99.90
8965;DHT22;4517;49.020;12.066;2023-02-01T16:37:16;5.00;99.90
8965;DHT22;4517;49.020;12.066;2023-02-01T16:39:42;4.90;99.90
8965;DHT22;4517;49.020;12.066;2023-02-01T16:42:14;4.90;99.90
8965;DHT22;4517;49.020;12.066;2023-02-01T16:44:41;4.90;99.90
8965;DHT22;4517;49.020;12.066;2023-02-01T16:47:19;4.90;99.90
8965;DHT22;4517;49.020;12.066;2023-02-01T16:49:46;5.00;99.90
8965;DHT22;4517;49.020;12.066;2023-02-01T16:52:18;5.00;99.90
8965;DHT22;4517;49.020;12.066;2023-02-01T16:54:44;5.00;99.90
8965;DHT22;4517;49.020;12.066;2023-02-01T16:57:15;4.90;99.90
8965;DHT22;4517;49.020;12.066;2023-02-01T16:59:42;5.00;99.90
8965;DHT22;4517;49.020;12.066;2023-02-01T17:02:17;5.00;99.90
8965;DHT22;4517;49.020;12.066;2023-02-01T17:04:44;5.00;99.90
8965;DHT22;4517;49.020;12.066;2023-02-01T17:07:18;5.00;99.90
8965;DHT22;4517;49.020;12.066;2023-02-01T17:09:44;4.90;99.90
8965;DHT22;4517;49.020;12.066;2023-02-01T17:12:25;5.00;99.90
8965;DHT22;4517;49.020;12.066;2023-02-01T17:14:51;5.00;99.90
8965;DHT22;4517;49.020;12.066;2023-02-01T17:17:18;5.00;99.90
8965;DHT22;4517;49.020;12.066;2023-02-01T17:19:50;5.10;99.90
8965;DHT22;4517;49.020;12.066;2023-02-01T17:22:18;5.10;99.90
8965;DHT22;4517;49.020;12.066;2023-02-01T17:24:44;5.10;99.90
8965;DHT22;4517;49.020;12.066;2023-02-01T17:27:10;5.00;99.90
8965;DHT22;4517;49.020;12.066;2023-02-01T17:29:35;5.00;99.90
8965;DHT22;4517;49.020;12.066;2023-02-01T17:32:02;5.00;99.90
8965;DHT22;4517;49.020;12.066;2023-02-01T17:34:27;5.10;99.90
8965;DHT22;4517;49.020;12.066;2023-02-01T17:36:53;5.00;99.90
8965;DHT22;4517;49.020;12.066;2023-02-01T17:39:18;5.00;99.90
8965;DHT22;4517;49.020;12.066;2023-02-01T17:42:04;5.00;99.90
8965;DHT22;4517;49.020;12.066;2023-02-01T17:44:30;5.00;99.90
8965;DHT22;4517;49.020;12.066;2023-02-01T17:46:57;5.00;99.90
8965;DHT22;4517;49.020;12.066;2023-02-01T17:49:24;5.00;99.90
8965;DHT22;4517;49.020;12.066;2023-02-01T17:51:50;5.00;99.90
8965;DHT22;4517;49.020;12.066;2023-02-01T17:54:16;5.00;99.90
8965;DHT22;4517;49.020;12.066;2023-02-01T17:56:42;5.00;99.90
8965;DHT22;4517;49.020;12.066;2023-02-01T17:59:08;5.00;99.90
8965;DHT22;4517;49.020;12.066;2023-02-01T18:01:34;5.00;99.90
8965;DHT22;4517;49.020;12.066;2023-02-01T18:03:59;5.00;99.90
8965;DHT22;4517;49.020;12.066;2023-02-01T18:06:25;5.10;99.90
8965;DHT22;4517;49.020;12.066;2023-02-01T18:08:52;5.10;99.90
8965;DHT22;4517;49.020;12.066;2023-02-01T18:11:20;5.10;99.90
8965;DHT22;4517;49.020;12.066;2023-02-01T18:13:48;5.10;99.90
8965;DHT22;4517;49.020;12.066;2023-02-01T18:16:24;5.10;99.90
8965;DHT22;4517;49.020;12.066;2023-02-01T18:18:50;5.20;99.90
8965;DHT22;4517;49.020;12.066;2023-02-01T18:21:18;5.20;99.90
8965;DHT22;4517;49.020;12.066;2023-02-01T18:23:44;5.10;99.90
8965;DHT22;4517;49.020;12.066;2023-02-01T18:26:13;5.20;99.90
8965;DHT22;4517;49.020;12.066;2023-02-01T18:28:39;5.20;99.90
8965;DHT22;4517;49.020;12.066;2023-02-01T18:31:06;5.20;99.90
8965;DHT22;4517;49.020;12.066;2023-02-01T18:33:32;5.20;99.90
8965;DHT22;4517;49.020;12.066;2023-02-01T18:35:58;5.20;99.90
8965;DHT22;4517;49.020;12.066;2023-02-01T18:38:24;5.20;99.90
8965;DHT22;4517;49.020;12.066;2023-02-01T18:40:52;5.20;99.90
8965;DHT22;4517;49.020;12.066;2023-02-01T18:43:19;5.20;99.90
8965;DHT22;4517;49.020;12.066;2023-02-01T18:45:45;5.20;99.90
8965;DHT22;4517;49.020;12.066;2023-02-01T18:48:13;5.20;99.90